Time;durP1;ratioP1;P1;durP2;ratioP2;P2;SDS_P1;SDS_P2;PMS_P1;PMS_P2;Temp;Humidity;BMP_temperature;BMP_pressure;BME280_temperature;BME280_humidity;BME280_pressure;Samples;Min_cycle;Max_cycle;Signal;HPM_P1;HPM_P2
2021/06/09 00:00:34;;;;;;;1.60;1.50;;;18.60;65.90;;;;;;5032834;28;20071;-73
2021/06/09 00:02:59;;;;;;;1.92;1.58;;;18.60;65.90;;;;;;5033220;28;20403;-74
2021/06/09 00:05:25;;;;;;;1.77;1.48;;;18.50;65.90;;;;;;5015225;28;20112;-73
2021/06/09 00:07:51;;;;;;;1.92;1.45;;;18.50;66.00;;;;;;5015193;28;20037;-75
2021/06/09 00:10:16;;;;;;;1.70;1.55;;;18.50;66.80;;;;;;5033240;28;20105;-73
2021/06/09 00:12:42;;;;;;;1.75;1.40;;;18.40;66.10;;;;;;5033015;28;20026;-75
2021/06/09 00:15:14;;;;;;;1.80;1.70;;;18.50;66.20;;;;;;5032660;28;20474;-75
2021/06/09 00:17:40;;;;;;;1.55;1.35;;;18.40;66.20;;;;;;5032807;28;20029;-74
2021/06/09 00:20:08;;;;;;;1.90;1.55;;;18.40;66.30;;;;;;5033034;28;20458;-73
2021/06/09 00:22:34;;;;;;;1.67;1.50;;;18.40;66.40;;;;;;5033086;28;20074;-75
2021/06/09 00:24:59;;;;;;;1.38;1.27;;;18.40;66.50;;;;;;5032249;28;20377;-73
2021/06/09 00:27:26;;;;;;;1.35;1.25;;;18.40;66.50;;;;;;5026952;28;20625;-75
2021/06/09 00:29:52;;;;;;;1.00;1.00;;;18.30;66.50;;;;;;5032371;28;20026;-73
2021/06/09 00:32:17;;;;;;;2.30;1.88;;;18.30;66.50;;;;;;5032830;28;20363;-74
2021/06/09 00:34:43;;;;;;;1.33;1.17;;;18.30;66.60;;;;;;5032764;28;20111;-75
2021/06/09 00:37:08;;;;;;;1.85;1.50;;;18.20;66.60;;;;;;5032939;28;20017;-74
2021/06/09 00:39:34;;;;;;;2.47;1.65;;;18.20;66.70;;;;;;5032734;28;20033;-74
2021/06/09 00:41:59;;;;;;;1.75;1.50;;;18.20;66.70;;;;;;5032719;28;20018;-74
2021/06/09 00:44:25;;;;;;;1.35;1.25;;;18.20;66.80;;;;;;5032272;28;20437;-74
2021/06/09 00:46:50;;;;;;;1.73;1.40;;;18.20;66.80;;;;;;5032589;28;20025;-73
2021/06/09 00:49:16;;;;;;;1.95;1.38;;;18.20;66.80;;;;;;5032629;28;20470;-75
2021/06/09 00:51:42;;;;;;;2.15;1.58;;;18.20;66.80;;;;;;5032647;28;20049;-75
2021/06/09 00:54:08;;;;;;;2.28;1.50;;;18.20;66.80;;;;;;5035183;28;20022;-74
2021/06/09 00:56:37;;;;;;;1.40;1.30;;;18.20;66.90;;;;;;5036436;28;20060;-74
2021/06/09 00:59:06;;;;;;;1.60;1.50;;;18.20;66.90;;;;;;5035829;28;20017;-75
2021/06/09 01:01:32;;;;;;;1.85;1.52;;;18.20;66.90;;;;;;5036420;28;20107;-75
2021/06/09 01:03:59;;;;;;;1.50;1.40;;;18.20;67.00;;;;;;5036182;28;20018;-74
2021/06/09 01:06:25;;;;;;;2.10;1.67;;;18.20;67.00;;;;;;5036368;28;20025;-74
2021/06/09 01:08:52;;;;;;;2.28;1.60;;;18.20;67.10;;;;;;5036177;28;20040;-74
2021/06/09 01:11:20;;;;;;;1.33;1.23;;;18.20;67.70;;;;;;5018448;28;20458;-74
2021/06/09 01:13:46;;;;;;;1.48;1.38;;;18.20;67.20;;;;;;5035442;28;20017;-74
2021/06/09 01:16:12;;;;;;;1.48;1.38;;;18.10;67.20;;;;;;5036096;28;20374;-74
2021/06/09 01:18:38;;;;;;;1.35;1.25;;;18.20;67.30;;;;;;5036004;28;20020;-74
2021/06/09 01:21:05;;;;;;;2.00;1.50;;;18.10;67.40;;;;;;5036009;28;20022;-74
2021/06/09 01:23:31;;;;;;;1.95;1.60;;;18.10;67.50;;;;;;5035824;28;20053;-73
2021/06/09 01:25:57;;;;;;;2.05;1.30;;;18.10;67.60;;;;;;5035948;28;20026;-74
2021/06/09 01:28:23;;;;;;;1.33;1.20;;;18.10;67.70;;;;;;5017406;28;20076;-74
2021/06/09 01:30:49;;;;;;;1.83;1.52;;;18.10;67.70;;;;;;5018164;28;20018;-73
2021/06/09 01:33:15;;;;;;;1.85;1.58;;;18.10;67.70;;;;;;5035576;28;20668;-74
2021/06/09 01:35:42;;;;;;;1.80;1.40;;;18.10;67.80;;;;;;5035783;28;20079;-74
2021/06/09 01:38:08;;;;;;;1.40;1.30;;;18.00;67.80;;;;;;5017961;28;20026;-74
2021/06/09 01:40:34;;;;;;;1.38;1.27;;;18.00;67.90;;;;;;5018061;28;20531;-73
2021/06/09 01:43:02;;;;;;;1.60;1.50;;;18.00;67.90;;;;;;5035128;28;20029;-74
2021/06/09 01:45:31;;;;;;;1.92;1.65;;;18.00;68.00;;;;;;5035543;28;20022;-75
2021/06/09 01:47:56;;;;;;;1.85;1.38;;;18.00;68.10;;;;;;5035418;28;20041;-74
2021/06/09 01:50:23;;;;;;;2.42;1.60;;;17.90;68.10;;;;;;5035778;28;20025;-74
2021/06/09 01:52:50;;;;;;;1.70;1.40;;;17.90;68.20;;;;;;5035454;28;20029;-74
2021/06/09 01:55:23;;;;;;;1.60;1.50;;;17.90;68.90;;;;;;5035381;28;20026;-75
2021/06/09 01:57:50;;;;;;;1.52;1.40;;;17.90;68.40;;;;;;5035622;28;20108;-73
2021/06/09 02:00:19;;;;;;;2.30;1.60;;;17.90;68.40;;;;;;5035171;28;20017;-72
2021/06/09 02:02:45;;;;;;;1.95;1.38;;;17.90;68.50;;;;;;5035247;28;20087;-75
2021/06/09 02:05:12;;;;;;;1.58;1.48;;;17.90;68.50;;;;;;5035072;28;20029;-73
2021/06/09 02:07:43;;;;;;;2.10;1.70;;;17.90;68.50;;;;;;5035058;28;20478;-73
2021/06/09 02:10:18;;;;;;;2.40;2.03;;;17.90;68.70;;;;;;5034551;28;20120;-73
2021/06/09 02:12:48;;;;;;;2.20;1.80;;;17.90;68.70;;;;;;5035209;28;20083;-73
2021/06/09 02:15:15;;;;;;;1.85;1.48;;;17.90;68.90;;;;;;5035116;28;20068;-73
2021/06/09 02:17:45;;;;;;;1.60;1.33;;;17.80;68.90;;;;;;5035027;28;20040;-74
2021/06/09 02:20:14;;;;;;;2.75;1.90;;;17.80;68.90;;;;;;5034909;28;20096;-74
2021/06/09 02:22:39;;;;;;;2.30;1.80;;;17.80;69.10;;;;;;5034826;28;20104;-74
2021/06/09 02:25:06;;;;;;;2.33;1.70;;;17.80;69.10;;;;;;5034749;28;20351;-75
2021/06/09 02:27:33;;;;;;;1.63;1.50;;;17.80;69.10;;;;;;5034368;28;20049;-73
2021/06/09 02:29:59;;;;;;;1.98;1.65;;;17.80;69.20;;;;;;5034848;28;20501;-74
2021/06/09 02:32:25;;;;;;;1.58;1.30;;;17.70;69.30;;;;;;5034653;28;20060;-73
2021/06/09 02:34:51;;;;;;;2.22;1.60;;;17.70;69.30;;;;;;5034652;28;20025;-75
2021/06/09 02:37:19;;;;;;;2.15;1.80;;;17.70;69.50;;;;;;5034586;28;20361;-75
2021/06/09 02:39:44;;;;;;;2.60;1.60;;;17.60;69.50;;;;;;5034376;28;20021;-74
2021/06/09 02:42:19;;;;;;;2.33;1.63;;;17.60;69.50;;;;;;5034429;28;20041;-74
2021/06/09 02:44:48;;;;;;;2.20;1.70;;;17.70;69.70;;;;;;5016644;28;20029;-74
2021/06/09 02:47:15;;;;;;;1.73;1.60;;;17.60;69.70;;;;;;5034465;28;20496;-73
2021/06/09 02:49:44;;;;;;;3.25;2.40;;;17.60;69.90;;;;;;5034338;28;20049;-75
2021/06/09 02:52:14;;;;;;;1.90;1.67;;;17.50;69.90;;;;;;5034425;28;20029;-73
2021/06/09 02:54:57;;;;;;;2.35;1.60;;;17.50;70.00;;;;;;5033895;28;20030;-74
2021/06/09 02:57:29;;;;;;;2.60;1.90;;;17.50;70.00;;;;;;5034021;28;20025;-74
2021/06/09 03:00:18;;;;;;;2.38;1.90;;;17.50;70.10;;;;;;5034109;28;20028;-74
2021/06/09 03:02:56;;;;;;;;;;;17.50;70.20;;;;;;5034566;28;20094;-74
2021/06/09 03:05:27;;;;;;;2.20;1.98;;;17.40;69.90;;;;;;5034168;28;19912;-74
2021/06/09 03:07:58;;;;;;;1.83;1.70;;;17.40;70.20;;;;;;5033530;28;20041;-75
2021/06/09 03:10:36;;;;;;;3.10;1.80;;;17.40;70.20;;;;;;5033927;28;20047;-73
2021/06/09 03:13:16;;;;;;;2.13;1.73;;;17.40;70.30;;;;;;5034038;28;20382;-74
2021/06/09 03:16:20;;;;;;;2.35;2.10;;;17.30;70.40;;;;;;5033404;28;20028;-74
2021/06/09 03:18:48;;;;;;;1.95;1.73;;;17.30;70.40;;;;;;4956742;28;20038;-74
2021/06/09 03:21:20;;;;;;;2.60;1.80;;;17.30;70.60;;;;;;4973376;28;20039;-73
2021/06/09 03:24:12;;;;;;;2.22;1.70;;;17.30;70.60;;;;;;4972431;28;20026;-74
2021/06/09 03:26:43;;;;;;;2.08;1.70;;;17.30;70.60;;;;;;4972740;28;20042;-75
2021/06/09 03:29:18;;;;;;;2.30;2.10;;;17.30;70.80;;;;;;4972699;28;20179;-75
2021/06/09 03:31:49;;;;;;;2.22;1.90;;;17.30;70.80;;;;;;4972829;28;20059;-75
2021/06/09 03:34:20;;;;;;;2.35;1.80;;;17.30;70.80;;;;;;4972853;28;20046;-74
2021/06/09 03:36:52;;;;;;;2.38;1.90;;;17.30;70.90;;;;;;4972814;28;20034;-75
2021/06/09 03:39:21;;;;;;;2.10;1.70;;;17.30;71.00;;;;;;4972688;28;20065;-73
2021/06/09 03:41:53;;;;;;;2.38;1.98;;;17.20;71.00;;;;;;4972434;28;20022;-73
2021/06/09 03:44:36;;;;;;;2.15;1.83;;;17.20;71.10;;;;;;4972779;28;20073;-74
2021/06/09 03:47:03;;;;;;;2.47;2.10;;;17.20;71.10;;;;;;4972714;28;20053;-74
2021/06/09 03:49:30;;;;;;;2.90;1.98;;;17.20;71.20;;;;;;4972716;28;20447;-73
2021/06/09 03:51:57;;;;;;;2.10;1.80;;;17.20;71.20;;;;;;4983674;28;20068;-75
2021/06/09 03:54:24;;;;;;;2.20;2.00;;;17.20;71.30;;;;;;5033191;28;20494;-74
2021/06/09 03:56:53;;;;;;;2.22;1.83;;;17.20;71.30;;;;;;5015559;28;20156;-74
2021/06/09 03:59:20;;;;;;;3.80;2.50;;;17.20;71.40;;;;;;5033333;28;20112;-75
2021/06/09 04:01:47;;;;;;;2.22;1.92;;;17.20;71.40;;;;;;5033260;28;20512;-74
2021/06/09 04:04:18;;;;;;;2.92;2.13;;;17.20;71.50;;;;;;5015552;28;20437;-76
2021/06/09 04:06:45;;;;;;;4.43;2.00;;;17.20;71.40;;;;;;5032665;28;20056;-74
2021/06/09 04:09:17;;;;;;;2.72;2.10;;;17.30;71.40;;;;;;5032930;28;20095;-74
2021/06/09 04:11:43;;;;;;;3.30;1.90;;;17.30;71.40;;;;;;5033029;28;20076;-75
2021/06/09 04:14:10;;;;;;;2.35;1.67;;;17.30;71.30;;;;;;5033110;28;20029;-73
2021/06/09 04:16:37;;;;;;;2.33;1.75;;;17.30;71.30;;;;;;5032737;28;20021;-73
2021/06/09 04:19:05;;;;;;;2.78;2.13;;;17.30;71.30;;;;;;5032916;28;20018;-74
2021/06/09 04:21:31;;;;;;;3.50;2.00;;;17.40;71.40;;;;;;5032514;28;20059;-74
2021/06/09 04:23:57;;;;;;;2.45;2.22;;;17.40;71.30;;;;;;5032812;28;20022;-74
2021/06/09 04:26:24;;;;;;;2.25;1.80;;;17.50;71.50;;;;;;5032777;28;20061;-74
2021/06/09 04:28:53;;;;;;;2.72;2.10;;;17.50;71.40;;;;;;5035002;28;20108;-74
2021/06/09 04:31:19;;;;;;;2.00;1.80;;;17.50;71.50;;;;;;5037047;28;20017;-73
2021/06/09 04:33:46;;;;;;;2.13;1.90;;;17.50;71.40;;;;;;5036796;28;20041;-77
2021/06/09 04:36:13;;;;;;;1.83;1.67;;;17.60;71.40;;;;;;5036617;28;20104;-76
2021/06/09 04:38:39;;;;;;;1.95;1.73;;;17.70;71.40;;;;;;5036873;28;20068;-76
2021/06/09 04:41:06;;;;;;;1.92;1.60;;;17.70;71.40;;;;;;5036985;28;20021;-75
2021/06/09 04:43:34;;;;;;;2.05;1.70;;;17.80;71.30;;;;;;5036793;28;20026;-76
2021/06/09 04:46:00;;;;;;;2.70;1.90;;;17.80;71.20;;;;;;5036659;28;20048;-76
2021/06/09 04:48:26;;;;;;;2.35;1.80;;;17.90;71.20;;;;;;5036412;28;20409;-73
2021/06/09 04:50:51;;;;;;;2.63;1.80;;;17.90;71.10;;;;;;5036112;28;20017;-76
2021/06/09 04:53:19;;;;;;;2.22;1.65;;;18.00;71.10;;;;;;5036614;28;20040;-75
2021/06/09 04:55:53;;;;;;;2.10;1.60;;;18.00;71.10;;;;;;5036493;28;20386;-75
2021/06/09 04:58:21;;;;;;;1.60;1.50;;;18.10;71.10;;;;;;5036381;28;20430;-74
2021/06/09 05:00:48;;;;;;;1.67;1.58;;;18.10;71.10;;;;;;5036260;28;20052;-73
2021/06/09 05:03:14;;;;;;;1.83;1.67;;;18.10;71.10;;;;;;5036296;28;20060;-75
2021/06/09 05:05:40;;;;;;;2.53;2.13;;;18.20;71.10;;;;;;5035863;28;20033;-73
2021/06/09 05:08:06;;;;;;;2.22;1.80;;;18.20;71.10;;;;;;5036506;28;20429;-74
2021/06/09 05:10:34;;;;;;;2.67;2.00;;;18.20;71.20;;;;;;5036132;28;20367;-74
2021/06/09 05:13:32;;;;;;;2.70;2.30;;;18.30;71.20;;;;;;5036332;28;20083;-74
2021/06/09 05:16:10;;;;;;;2.47;2.00;;;18.30;71.10;;;;;;5002661;28;20038;-73
2021/06/09 05:18:45;;;;;;;2.58;2.00;;;18.40;71.10;;;;;;5017858;28;20558;-74
2021/06/09 05:21:17;;;;;;;1.75;1.55;;;18.50;71.10;;;;;;5035919;28;20103;-73
2021/06/09 05:23:48;;;;;;;3.42;1.92;;;18.60;71.00;;;;;;5035909;28;20021;-74
2021/06/09 05:26:15;;;;;;;3.08;2.30;;;18.70;71.00;;;;;;5035741;28;20469;-72
2021/06/09 05:28:46;;;;;;;2.90;2.00;;;18.70;70.80;;;;;;5035959;28;20037;-73
2021/06/09 05:31:13;;;;;;;3.25;2.10;;;18.80;70.80;;;;;;5035976;28;20096;-74
2021/06/09 05:33:41;;;;;;;2.55;1.98;;;18.90;70.80;;;;;;5035476;28;20025;-74
2021/06/09 05:36:07;;;;;;;3.13;2.35;;;19.00;70.80;;;;;;5035663;28;20354;-73
2021/06/09 05:38:33;;;;;;;2.42;2.10;;;19.00;70.70;;;;;;5035293;28;20021;-73
2021/06/09 05:41:00;;;;;;;2.70;2.13;;;19.10;70.70;;;;;;5035583;28;20030;-72
2021/06/09 05:43:27;;;;;;;3.08;2.22;;;19.20;70.60;;;;;;5035551;28;20067;-73
2021/06/09 05:45:53;;;;;;;2.67;1.90;;;19.30;70.60;;;;;;5035549;28;20024;-73
2021/06/09 05:48:19;;;;;;;2.17;1.88;;;19.40;70.50;;;;;;5034930;28;20033;-74
2021/06/09 05:50:56;;;;;;;2.45;2.25;;;19.50;70.40;;;;;;5035463;28;20100;-73
2021/06/09 05:53:23;;;;;;;2.67;1.88;;;19.60;70.50;;;;;;5035724;28;20033;-73
2021/06/09 05:55:49;;;;;;;3.00;2.45;;;19.70;70.40;;;;;;5035601;28;20063;-73
2021/06/09 05:58:20;;;;;;;2.65;2.10;;;19.80;70.40;;;;;;5035384;28;20113;-74
2021/06/09 06:00:57;;;;;;;2.90;2.22;;;19.90;70.20;;;;;;5035274;28;20083;-74
2021/06/09 06:03:24;;;;;;;2.70;2.13;;;20.00;70.10;;;;;;5034808;28;20033;-73
2021/06/09 06:05:55;;;;;;;2.20;2.00;;;20.10;70.00;;;;;;5035609;28;20033;-74
2021/06/09 06:08:20;;;;;;;3.20;2.30;;;20.20;69.90;;;;;;5035300;28;20044;-73
2021/06/09 06:10:46;;;;;;;3.30;2.10;;;20.30;69.90;;;;;;5017490;28;20017;-74
2021/06/09 06:13:13;;;;;;;2.92;2.25;;;20.30;69.80;;;;;;5034899;28;20021;-74
2021/06/09 06:15:39;;;;;;;2.42;2.17;;;20.40;69.80;;;;;;5034895;28;20080;-74
2021/06/09 06:18:05;;;;;;;2.83;2.15;;;20.50;69.90;;;;;;5034587;28;20037;-74
2021/06/09 06:20:31;;;;;;;2.85;2.38;;;20.60;69.90;;;;;;5035191;28;20060;-74
2021/06/09 06:22:56;;;;;;;4.13;2.40;;;20.70;69.80;;;;;;5034864;28;20029;-75
2021/06/09 06:25:24;;;;;;;3.88;2.67;;;20.80;69.80;;;;;;5034847;28;20017;-74
2021/06/09 06:27:52;;;;;;;3.60;2.53;;;20.80;69.80;;;;;;5034555;28;20049;-75
2021/06/09 06:30:20;;;;;;;2.97;2.35;;;20.90;69.80;;;;;;5035239;28;20019;-75
2021/06/09 06:32:49;;;;;;;3.40;2.75;;;21.00;69.80;;;;;;5034328;28;20021;-75
2021/06/09 06:35:17;;;;;;;;;;;21.00;69.70;;;;;;5034966;28;20033;-75
2021/06/09 06:37:43;;;;;;;2.45;1.95;;;21.00;69.70;;;;;;5034542;28;20265;-74
2021/06/09 06:40:09;;;;;;;3.08;2.20;;;21.00;69.90;;;;;;5034654;28;20028;-74
2021/06/09 06:42:36;;;;;;;3.63;2.80;;;21.10;69.80;;;;;;5034434;28;20101;-73
2021/06/09 06:45:04;;;;;;;3.75;3.05;;;21.10;69.90;;;;;;5016704;28;20068;-73
2021/06/09 06:47:32;;;;;;;4.68;2.78;;;21.10;69.80;;;;;;5033810;28;20037;-73
2021/06/09 06:49:58;;;;;;;2.85;2.40;;;21.20;69.80;;;;;;5034357;28;20030;-75
2021/06/09 06:52:31;;;;;;;3.22;2.80;;;21.20;69.80;;;;;;5033575;28;20013;-74
2021/06/09 06:55:01;;;;;;;4.30;2.83;;;21.30;69.70;;;;;;5034202;28;20104;-73
2021/06/09 06:57:30;;;;;;;4.13;3.08;;;21.40;69.70;;;;;;5034123;28;20025;-75
2021/06/09 06:59:57;;;;;;;;;;;21.50;69.60;;;;;;5034170;28;20017;-75
2021/06/09 07:02:23;;;;;;;3.55;2.50;;;21.50;69.50;;;;;;5034202;28;19905;-73
2021/06/09 07:04:49;;;;;;;4.03;2.80;;;21.50;69.40;;;;;;5034186;28;20031;-73
2021/06/09 07:07:16;;;;;;;4.97;3.80;;;21.60;69.40;;;;;;5034039;28;20104;-73
2021/06/09 07:09:42;;;;;;;4.22;3.38;;;21.70;69.30;;;;;;5033907;28;20036;-74
2021/06/09 07:12:08;;;;;;;5.82;4.10;;;21.80;69.20;;;;;;5033950;28;20037;-73
2021/06/09 07:14:35;;;;;;;4.72;3.60;;;21.90;69.10;;;;;;5033504;28;20057;-73
2021/06/09 07:17:01;;;;;;;5.20;4.03;;;21.90;69.00;;;;;;5034015;28;20026;-74
2021/06/09 07:19:27;;;;;;;4.43;3.53;;;22.00;69.00;;;;;;5033781;28;20021;-73
2021/06/09 07:21:54;;;;;;;3.90;2.88;;;22.10;68.90;;;;;;5033779;28;20099;-73
2021/06/09 07:24:20;;;;;;;3.28;2.50;;;22.20;68.80;;;;;;5033599;28;20026;-73
2021/06/09 07:26:48;;;;;;;3.05;2.50;;;22.30;68.80;;;;;;5015686;28;20049;-73
2021/06/09 07:29:18;;;;;;;3.83;3.20;;;22.40;68.70;;;;;;5033177;28;20029;-74
2021/06/09 07:31:46;;;;;;;2.95;2.33;;;22.50;68.70;;;;;;5033634;28;20419;-73
2021/06/09 07:34:15;;;;;;;4.18;3.15;;;22.50;68.70;;;;;;5033488;28;20382;-73
2021/06/09 07:36:46;;;;;;;3.53;2.47;;;22.60;68.60;;;;;;5015861;28;20022;-73
2021/06/09 07:39:21;;;;;;;4.13;3.25;;;22.60;68.60;;;;;;5033457;28;20017;-74
2021/06/09 07:41:48;;;;;;;4.40;3.75;;;22.60;68.50;;;;;;5033501;28;20532;-74
2021/06/09 07:44:17;;;;;;;5.30;3.60;;;22.60;68.60;;;;;;5032951;28;20033;-74
2021/06/09 07:46:43;;;;;;;3.75;2.95;;;22.60;68.60;;;;;;5033273;28;20106;-73
2021/06/09 07:49:11;;;;;;;3.22;2.60;;;22.60;68.60;;;;;;5033234;28;20022;-73
2021/06/09 07:51:38;;;;;;;3.58;2.80;;;22.60;68.70;;;;;;5015451;28;20030;-72
2021/06/09 07:54:05;;;;;;;3.70;3.15;;;22.70;68.60;;;;;;5033287;28;20025;-72
2021/06/09 07:56:36;;;;;;;3.70;3.00;;;22.80;68.50;;;;;;5033162;28;20033;-73
2021/06/09 07:59:05;;;;;;;4.10;3.10;;;22.90;68.50;;;;;;5032837;28;20053;-73
2021/06/09 08:01:31;;;;;;;;;;;22.90;68.40;;;;;;5033545;28;20017;-75
2021/06/09 08:03:57;;;;;;;4.95;3.03;;;22.90;68.30;;;;;;5033011;28;20281;-74
2021/06/09 08:06:24;;;;;;;4.55;3.42;;;23.00;68.30;;;;;;5033059;28;20025;-73
2021/06/09 08:08:50;;;;;;;4.03;3.15;;;23.00;68.00;;;;;;5033018;28;20029;-73
2021/06/09 08:11:16;;;;;;;5.68;4.03;;;23.00;68.20;;;;;;5032962;28;20048;-74
2021/06/09 08:13:43;;;;;;;4.10;3.13;;;23.00;68.10;;;;;;5032539;28;20408;-75
2021/06/09 08:16:17;;;;;;;3.58;3.13;;;23.00;68.10;;;;;;5032966;28;20025;-73
2021/06/09 08:18:44;;;;;;;4.85;3.40;;;23.10;68.20;;;;;;5032855;28;20032;-74
2021/06/09 08:21:25;;;;;;;3.63;3.28;;;23.10;68.10;;;;;;5033055;28;20099;-74
2021/06/09 08:23:52;;;;;;;3.63;2.80;;;23.20;68.00;;;;;;5032871;28;20478;-75
2021/06/09 08:26:23;;;;;;;4.15;3.20;;;23.20;67.90;;;;;;5032712;28;20385;-75
2021/06/09 08:28:48;;;;;;;3.13;2.70;;;23.40;67.80;;;;;;5032237;28;20029;-74
2021/06/09 08:31:18;;;;;;;3.17;2.67;;;23.40;67.60;;;;;;5032772;28;20100;-73
2021/06/09 08:33:45;;;;;;;3.67;2.67;;;23.50;67.60;;;;;;5032758;28;20048;-74
2021/06/09 08:36:13;;;;;;;3.95;3.03;;;23.50;67.40;;;;;;5032657;28;20033;-74
2021/06/09 08:38:39;;;;;;;3.85;3.13;;;23.60;67.30;;;;;;5032781;28;20060;-73
2021/06/09 08:41:05;;;;;;;2.58;2.33;;;23.60;67.20;;;;;;5032660;28;20382;-74
2021/06/09 08:43:35;;;;;;;4.15;3.08;;;23.60;67.20;;;;;;5032366;28;20025;-74
2021/06/09 08:46:03;;;;;;;3.60;2.92;;;23.70;67.00;;;;;;5032503;28;20026;-74
2021/06/09 08:48:29;;;;;;;4.15;3.28;;;23.70;66.90;;;;;;5032648;28;20026;-74
2021/06/09 08:50:55;;;;;;;4.40;3.30;;;23.80;66.80;;;;;;5032528;28;20083;-74
2021/06/09 08:53:22;;;;;;;4.10;3.13;;;23.80;66.80;;;;;;5032657;28;20411;-73
2021/06/09 08:55:51;;;;;;;4.05;3.22;;;23.80;66.70;;;;;;5032639;28;20029;-73
2021/06/09 08:58:17;;;;;;;3.33;2.70;;;23.80;66.60;;;;;;5014861;28;20018;-74
2021/06/09 09:00:45;;;;;;;3.63;2.83;;;24.00;66.60;;;;;;5032860;28;20021;-73
2021/06/09 09:03:11;;;;;;;3.42;2.90;;;24.10;66.20;;;;;;5014728;28;20022;-74
2021/06/09 09:05:37;;;;;;;3.25;2.58;;;24.20;66.10;;;;;;5032629;28;20476;-73
2021/06/09 09:08:04;;;;;;;2.83;2.40;;;24.30;65.90;;;;;;5032294;28;20033;-72
2021/06/09 09:10:31;;;;;;;3.08;2.40;;;24.40;65.70;;;;;;5032005;28;20026;-73
2021/06/09 09:12:57;;;;;;;3.47;2.67;;;24.50;65.60;;;;;;5032496;28;20470;-73
2021/06/09 09:15:23;;;;;;;3.45;2.72;;;24.70;65.50;;;;;;5017326;28;20029;-72
2021/06/09 09:17:53;;;;;;;3.75;2.95;;;24.70;65.30;;;;;;5036192;28;20173;-74
2021/06/09 09:20:42;;;;;;;3.42;2.83;;;24.70;65.40;;;;;;5035973;28;20021;-74
2021/06/09 09:23:23;;;;;;;2.97;2.67;;;24.70;65.30;;;;;;5035812;28;20385;-73
2021/06/09 09:25:52;;;;;;;3.05;2.42;;;24.70;65.40;;;;;;5035472;28;20108;-73
2021/06/09 09:28:30;;;;;;;2.60;2.40;;;24.60;65.60;;;;;;5035590;28;20081;-73
2021/06/09 09:31:10;;;;;;;3.83;2.67;;;24.70;65.40;;;;;;5035903;28;20540;-74
2021/06/09 09:33:38;;;;;;;3.35;2.72;;;24.60;65.50;;;;;;5035597;28;20041;-73
2021/06/09 09:36:27;;;;;;;3.55;2.63;;;24.70;65.40;;;;;;5035623;28;20024;-73
2021/06/09 09:38:54;;;;;;;4.25;2.70;;;24.80;65.10;;;;;;5017900;28;20022;-72
2021/06/09 09:41:20;;;;;;;3.97;2.97;;;24.70;65.00;;;;;;5035134;28;20025;-73
2021/06/09 09:43:47;;;;;;;3.33;2.70;;;24.70;65.00;;;;;;5035454;28;20030;-73
2021/06/09 09:46:16;;;;;;;2.10;1.90;;;24.70;65.00;;;;;;5035478;28;20419;-74
2021/06/09 09:49:18;;;;;;;3.20;2.30;;;24.70;64.90;;;;;;5035464;28;20112;-73
2021/06/09 09:51:48;;;;;;;2.50;2.30;;;24.90;64.80;;;;;;5035478;28;20014;-75
2021/06/09 09:54:14;;;;;;;2.80;2.50;;;24.90;64.90;;;;;;5034799;28;20355;-74
2021/06/09 09:56:41;;;;;;;3.80;2.75;;;24.90;64.80;;;;;;5035170;28;20048;-73
2021/06/09 09:59:13;;;;;;;2.58;2.22;;;25.00;64.60;;;;;;5035234;28;20056;-73
2021/06/09 10:01:43;;;;;;;3.20;2.78;;;25.10;64.40;;;;;;5035237;28;20421;-74
2021/06/09 10:04:09;;;;;;;2.45;1.88;;;25.20;64.30;;;;;;5035195;28;20033;-71
2021/06/09 10:06:45;;;;;;;3.22;2.40;;;25.30;64.00;;;;;;5035024;28;20021;-73
2021/06/09 10:09:20;;;;;;;3.13;2.33;;;25.50;63.80;;;;;;5034557;28;20037;-73
2021/06/09 10:11:51;;;;;;;3.00;2.03;;;25.70;63.50;;;;;;5035070;28;20036;-73
2021/06/09 10:14:38;;;;;;;2.25;1.67;;;25.80;63.50;;;;;;5034951;28;20030;-73
2021/06/09 10:17:22;;;;;;;2.60;2.40;;;25.90;63.40;;;;;;5035138;28;20087;-73
2021/06/09 10:19:54;;;;;;;2.70;2.35;;;26.10;63.10;;;;;;5034976;28;20032;-73
2021/06/09 10:22:32;;;;;;;2.63;1.92;;;26.20;63.50;;;;;;5034754;28;20025;-73
2021/06/09 10:25:01;;;;;;;2.35;2.10;;;26.20;62.90;;;;;;5016329;28;20022;-72
2021/06/09 10:27:49;;;;;;;2.60;2.00;;;26.30;62.70;;;;;;5033719;28;20103;-73
2021/06/09 10:30:26;;;;;;;1.85;1.67;;;26.30;62.60;;;;;;5034769;28;20405;-73
2021/06/09 10:32:59;;;;;;;2.05;1.83;;;26.40;62.70;;;;;;5034641;28;20033;-73
2021/06/09 10:35:46;;;;;;;2.22;1.98;;;26.50;62.50;;;;;;5034448;28;20137;-72
2021/06/09 10:38:14;;;;;;;1.67;1.50;;;26.50;62.40;;;;;;5034134;28;20104;-72
2021/06/09 10:40:39;;;;;;;1.80;1.63;;;26.60;62.20;;;;;;5016687;28;20021;-72
2021/06/09 10:43:06;;;;;;;2.20;1.90;;;26.70;62.10;;;;;;5016721;28;20026;-72
2021/06/09 10:45:32;;;;;;;1.77;1.60;;;26.70;61.90;;;;;;5034332;28;20125;-72
2021/06/09 10:48:01;;;;;;;2.63;1.60;;;26.70;62.20;;;;;;5034343;28;20040;-72
2021/06/09 10:50:26;;;;;;;2.22;1.65;;;26.70;62.10;;;;;;5034255;28;20080;-71
2021/06/09 10:52:52;;;;;;;2.65;1.80;;;26.70;61.80;;;;;;5033851;28;20482;-72
2021/06/09 10:55:19;;;;;;;2.67;2.00;;;26.70;61.40;;;;;;5034284;28;20044;-72
2021/06/09 10:57:45;;;;;;;2.45;2.00;;;26.60;61.50;;;;;;5016341;28;20336;-74
2021/06/09 11:00:15;;;;;;;2.38;1.77;;;26.60;61.50;;;;;;5034110;28;20018;-72
2021/06/09 11:02:42;;;;;;;2.47;1.90;;;26.80;61.30;;;;;;5016153;28;20029;-73
2021/06/09 11:05:13;;;;;;;3.13;2.30;;;26.90;61.10;;;;;;5034049;28;20053;-73
2021/06/09 11:07:44;;;;;;;2.53;2.30;;;26.90;61.00;;;;;;5033425;28;20048;-73
2021/06/09 11:10:12;;;;;;;2.20;2.00;;;26.90;61.20;;;;;;5033961;28;20458;-75
2021/06/09 11:12:45;;;;;;;3.77;2.90;;;27.00;61.00;;;;;;5033876;28;20029;-72
2021/06/09 11:15:17;;;;;;;3.17;2.75;;;27.00;60.60;;;;;;5033694;28;20306;-74
2021/06/09 11:17:49;;;;;;;4.00;2.88;;;26.90;60.80;;;;;;5033660;28;20029;-74
2021/06/09 11:20:22;;;;;;;3.58;2.53;;;27.20;60.40;;;;;;5033771;28;20083;-74
2021/06/09 11:22:55;;;;;;;2.63;2.22;;;27.70;59.80;;;;;;5033218;28;20029;-77
2021/06/09 11:25:42;;;;;;;2.22;1.65;;;28.30;58.70;;;;;;5033681;28;20032;-73
2021/06/09 11:28:19;;;;;;;2.30;2.03;;;29.00;58.20;;;;;;5015676;28;20501;-73
2021/06/09 11:30:54;;;;;;;2.97;1.83;;;29.50;57.20;;;;;;5015736;28;20029;-75
2021/06/09 11:33:49;;;;;;;1.80;1.67;;;29.70;56.70;;;;;;5033543;28;20108;-75
2021/06/09 11:36:18;;;;;;;1.70;1.60;;;30.10;56.40;;;;;;5032880;28;20071;-75
2021/06/09 11:38:45;;;;;;;2.10;1.90;;;30.20;56.10;;;;;;5032979;28;20092;-74
2021/06/09 11:41:18;;;;;;;2.55;2.05;;;30.20;56.20;;;;;;5033306;28;20028;-75
2021/06/09 11:43:51;;;;;;;2.30;2.08;;;30.30;56.40;;;;;;5033369;28;20025;-76
2021/06/09 11:46:17;;;;;;;2.10;1.80;;;30.20;55.80;;;;;;5033242;28;20033;-74
2021/06/09 11:48:54;;;;;;;2.15;1.80;;;30.20;55.70;;;;;;5033243;28;20099;-76
2021/06/09 11:51:31;;;;;;;1.73;1.40;;;30.30;55.60;;;;;;5032847;28;20024;-73
2021/06/09 11:54:01;;;;;;;1.60;1.50;;;30.50;55.50;;;;;;5033238;28;20079;-75
2021/06/09 11:56:43;;;;;;;1.70;1.60;;;30.50;55.50;;;;;;5033408;28;20519;-75
2021/06/09 11:59:26;;;;;;;1.50;1.40;;;30.60;55.40;;;;;;5033178;28;20075;-73
2021/06/09 12:01:54;;;;;;;2.40;2.17;;;30.40;55.70;;;;;;5033121;28;20039;-75
2021/06/09 12:04:30;;;;;;;2.93;2.17;;;30.50;55.50;;;;;;5032748;28;20128;-76
2021/06/09 12:07:02;;;;;;;2.15;1.95;;;30.30;55.50;;;;;;5033089;28;20294;-74
2021/06/09 12:09:40;;;;;;;2.13;1.65;;;30.00;55.50;;;;;;5033134;28;20427;-75
2021/06/09 12:12:15;;;;;;;2.78;1.85;;;29.70;55.90;;;;;;5033013;28;20037;-74
2021/06/09 12:14:45;;;;;;;2.10;1.90;;;29.50;55.90;;;;;;5033078;28;20024;-74
2021/06/09 12:17:10;;;;;;;2.15;1.95;;;29.40;55.90;;;;;;5032832;28;20044;-74
2021/06/09 12:19:36;;;;;;;1.98;1.80;;;29.50;55.90;;;;;;5032120;28;20482;-75
2021/06/09 12:22:07;;;;;;;1.88;1.67;;;29.80;55.50;;;;;;5032812;28;20029;-74
2021/06/09 12:24:37;;;;;;;1.75;1.50;;;30.00;55.00;;;;;;5015587;28;20445;-75
2021/06/09 12:27:09;;;;;;;1.92;1.73;;;30.20;54.90;;;;;;5032719;28;20045;-73
2021/06/09 12:29:37;;;;;;;1.92;1.58;;;30.20;54.60;;;;;;5032848;28;20391;-74
2021/06/09 12:32:20;;;;;;;1.57;1.47;;;30.40;54.40;;;;;;5015226;28;20344;-76
2021/06/09 12:35:06;;;;;;;1.67;1.58;;;30.70;54.00;;;;;;5031997;28;20045;-74
2021/06/09 12:37:34;;;;;;;1.40;1.30;;;30.90;53.70;;;;;;5032845;28;20029;-74
2021/06/09 12:40:07;;;;;;;1.55;1.45;;;30.90;53.70;;;;;;5032566;28;20021;-75
2021/06/09 12:42:32;;;;;;;1.20;1.08;;;31.30;53.30;;;;;;5032505;28;20025;-73
2021/06/09 12:44:58;;;;;;;1.45;1.27;;;31.50;53.00;;;;;;5032427;28;20059;-74
2021/06/09 12:47:33;;;;;;;2.05;1.40;;;31.80;52.80;;;;;;5032484;28;20087;-77
2021/06/09 12:50:15;;;;;;;2.05;1.85;;;32.10;52.30;;;;;;5034412;28;20093;-75
2021/06/09 12:52:56;;;;;;;1.80;1.67;;;32.00;52.20;;;;;;5036761;28;20082;-75
2021/06/09 12:55:29;;;;;;;1.35;1.25;;;31.90;52.30;;;;;;5036617;28;20087;-74
2021/06/09 12:57:59;;;;;;;1.85;1.60;;;31.90;52.40;;;;;;5036355;28;20023;-72
2021/06/09 13:00:44;;;;;;;1.52;1.42;;;32.10;52.20;;;;;;5036491;28;20148;-75